createdAt,value
2017-10-03T00:00:58.001Z,2.00
2017-10-03T00:03:25.658Z,1.60
2017-10-03T00:05:53.395Z,1.30
2017-10-03T00:08:21.102Z,1.33
2017-10-03T00:10:48.787Z,1.60
2017-10-03T00:13:16.535Z,1.30
2017-10-03T00:15:44.282Z,2.07
2017-10-03T00:18:12.030Z,1.30
2017-10-03T00:20:39.779Z,0.97
2017-10-03T00:23:07.524Z,0.83
2017-10-03T00:25:35.372Z,1.40
2017-10-03T00:28:03.017Z,1.10
2017-10-03T00:30:30.723Z,1.03
2017-10-03T00:32:58.512Z,0.90
2017-10-03T00:35:26.171Z,0.90
2017-10-03T00:37:53.906Z,0.93
2017-10-03T00:40:21.655Z,0.80
2017-10-03T00:42:49.401Z,0.80
2017-10-03T00:45:17.148Z,1.00
2017-10-03T00:47:44.895Z,0.80
2017-10-03T00:50:12.552Z,0.90
2017-10-03T00:52:40.492Z,0.90
2017-10-03T00:55:08.214Z,1.17
2017-10-03T00:57:35.987Z,0.83
2017-10-03T01:00:03.743Z,1.00
2017-10-03T01:02:31.438Z,0.93
2017-10-03T01:04:59.086Z,0.80
2017-10-03T01:07:26.873Z,0.60
2017-10-03T01:09:54.623Z,0.80
2017-10-03T01:12:22.370Z,0.80
2017-10-03T01:14:50.190Z,0.80
2017-10-03T01:17:17.837Z,0.80
2017-10-03T01:19:45.520Z,0.80
2017-10-03T01:22:13.227Z,1.00
2017-10-03T01:24:41.004Z,0.70
2017-10-03T01:27:08.675Z,0.93
2017-10-03T01:29:36.806Z,1.13
2017-10-03T01:32:04.552Z,0.80
2017-10-03T01:34:32.192Z,1.00
2017-10-03T01:36:59.891Z,0.70
2017-10-03T01:39:27.530Z,0.83
2017-10-03T01:41:55.183Z,0.73
2017-10-03T01:44:23.086Z,0.73
2017-10-03T01:46:50.782Z,0.67
2017-10-03T01:49:18.478Z,0.90
2017-10-03T01:51:46.190Z,1.00
2017-10-03T01:54:13.973Z,0.80
2017-10-03T01:56:41.721Z,0.80
2017-10-03T01:59:09.467Z,1.00
2017-10-03T02:01:37.111Z,0.70
2017-10-03T02:04:04.859Z,0.77
2017-10-03T02:06:32.572Z,1.07
2017-10-03T02:09:00.211Z,0.77
2017-10-03T02:11:27.896Z,0.80
2017-10-03T02:13:55.646Z,0.93
2017-10-03T02:16:23.290Z,0.80
2017-10-03T02:18:50.944Z,1.07
2017-10-03T02:21:18.679Z,0.97
2017-10-03T02:23:46.355Z,0.97
2017-10-03T02:26:14.403Z,0.80
2017-10-03T02:28:42.127Z,0.77
2017-10-03T02:31:09.772Z,1.00
2017-10-03T02:33:37.521Z,0.80
2017-10-03T02:36:05.335Z,1.10
2017-10-03T02:38:32.977Z,0.90
2017-10-03T02:41:00.614Z,0.60
2017-10-03T02:43:28.315Z,0.80
2017-10-03T02:45:56.052Z,0.80
2017-10-03T02:48:23.806Z,0.63
2017-10-03T02:50:51.652Z,0.70
2017-10-03T02:53:19.347Z,0.90
2017-10-03T02:55:47.044Z,0.60
2017-10-03T02:58:14.740Z,0.80
2017-10-03T03:00:42.388Z,0.90
2017-10-03T03:03:10.182Z,0.90
2017-10-03T03:05:38.124Z,0.53
2017-10-03T03:08:05.881Z,0.60
2017-10-03T03:10:33.628Z,0.60
2017-10-03T03:13:01.330Z,0.60
2017-10-03T03:15:28.994Z,0.70
2017-10-03T03:17:56.665Z,1.07
2017-10-03T03:20:24.363Z,0.60
2017-10-03T03:22:52.003Z,0.80
2017-10-03T03:25:19.704Z,0.77
2017-10-03T03:27:47.452Z,0.70
2017-10-03T03:30:15.199Z,0.73
2017-10-03T03:32:42.845Z,0.70
2017-10-03T03:35:10.654Z,0.93
2017-10-03T03:37:38.441Z,0.67
2017-10-03T03:40:06.188Z,0.87
2017-10-03T03:42:33.891Z,0.70
2017-10-03T03:45:01.580Z,0.70
2017-10-03T03:47:29.328Z,0.70
2017-10-03T03:49:57.074Z,0.80
2017-10-03T03:52:24.824Z,0.70
2017-10-03T03:54:52.572Z,0.97
2017-10-03T03:57:20.524Z,0.80
2017-10-03T03:59:48.272Z,0.80
2017-10-03T04:02:15.914Z,1.77
2017-10-03T04:04:43.626Z,0.73
2017-10-03T04:07:11.266Z,0.80
2017-10-03T04:09:38.923Z,0.77
2017-10-03T04:12:06.635Z,0.80
2017-10-03T04:14:34.703Z,0.70
2017-10-03T04:17:02.354Z,0.80
2017-10-03T04:19:30.248Z,0.53
2017-10-03T04:21:57.922Z,0.70
2017-10-03T04:24:26.052Z,0.50
2017-10-03T04:26:53.799Z,0.60
2017-10-03T04:29:21.547Z,0.60
2017-10-03T04:31:49.198Z,0.80
2017-10-03T04:34:16.910Z,0.67
2017-10-03T04:36:44.563Z,1.10
2017-10-03T04:39:12.215Z,1.10
2017-10-03T04:41:39.916Z,0.93
2017-10-03T04:44:07.571Z,1.07
2017-10-03T04:46:35.264Z,0.70
2017-10-03T04:49:02.971Z,0.90
2017-10-03T04:51:30.772Z,1.00
2017-10-03T04:53:58.414Z,0.77
2017-10-03T04:56:26.106Z,0.80
2017-10-03T04:58:53.811Z,0.70
2017-10-03T05:01:21.557Z,0.80
2017-10-03T05:03:49.265Z,0.80
2017-10-03T05:06:16.909Z,1.17
2017-10-03T05:08:44.595Z,0.90
2017-10-03T05:11:12.283Z,0.90
2017-10-03T05:13:39.918Z,1.10
2017-10-03T05:16:08.041Z,0.90
2017-10-03T05:18:35.830Z,0.90
2017-10-03T05:21:03.483Z,0.90
2017-10-03T05:23:31.176Z,0.80
2017-10-03T05:25:58.928Z,0.97
2017-10-03T05:28:27.391Z,0.90
2017-10-03T05:30:55.040Z,0.70
2017-10-03T05:33:22.824Z,0.73
2017-10-03T05:35:50.858Z,0.80
2017-10-03T05:38:18.589Z,0.80
2017-10-03T05:40:46.315Z,0.77
2017-10-03T05:43:13.959Z,0.77
2017-10-03T05:45:41.601Z,1.00
2017-10-03T05:48:09.351Z,1.00
2017-10-03T05:50:37.016Z,1.20
2017-10-03T05:53:04.671Z,1.10
2017-10-03T05:55:32.369Z,0.70
2017-10-03T05:58:00.059Z,1.30
2017-10-03T06:00:27.800Z,1.00
2017-10-03T06:02:55.499Z,1.30
2017-10-03T06:05:23.147Z,1.00
2017-10-03T06:07:51.045Z,0.97
2017-10-03T06:10:19.008Z,0.87
2017-10-03T06:12:46.658Z,0.90
2017-10-03T06:15:14.311Z,1.00
2017-10-03T06:17:42.012Z,0.80
2017-10-03T06:20:09.667Z,0.80
2017-10-03T06:22:37.303Z,0.93
2017-10-03T06:25:05.003Z,0.70
2017-10-03T06:27:33.124Z,1.20
2017-10-03T06:30:00.775Z,0.70
2017-10-03T06:32:28.483Z,1.10
2017-10-03T06:34:56.138Z,1.17
2017-10-03T06:37:23.911Z,0.90
2017-10-03T06:39:51.605Z,1.10
2017-10-03T06:42:19.332Z,0.97
2017-10-03T06:44:47.380Z,0.90
2017-10-03T06:47:15.579Z,0.90
2017-10-03T06:49:43.262Z,1.10
2017-10-03T06:52:10.971Z,0.80
2017-10-03T06:54:38.857Z,0.83
2017-10-03T06:57:06.606Z,0.70
2017-10-03T06:59:34.303Z,1.50
2017-10-03T07:02:02.043Z,1.10
2017-10-03T07:04:29.744Z,1.00
2017-10-03T07:06:57.493Z,0.60
2017-10-03T07:09:25.197Z,0.70
2017-10-03T07:11:52.847Z,0.83
2017-10-03T07:14:20.532Z,0.70
2017-10-03T07:16:48.278Z,1.10
2017-10-03T07:19:15.935Z,0.57
2017-10-03T07:21:43.628Z,0.50
2017-10-03T07:24:11.398Z,1.00
2017-10-03T07:26:39.047Z,1.13
2017-10-03T07:29:06.708Z,1.50
2017-10-03T07:31:34.456Z,7.63
2017-10-03T07:34:02.115Z,1.67
2017-10-03T07:36:29.770Z,0.60
2017-10-03T07:38:57.974Z,15.43
2017-10-03T07:41:26.058Z,7.00
2017-10-03T07:43:53.808Z,1.23
2017-10-03T07:46:21.525Z,7.33
2017-10-03T07:48:49.609Z,1.17
2017-10-03T07:51:17.357Z,0.83
2017-10-03T07:53:45.151Z,0.97
2017-10-03T07:56:12.856Z,1.20
2017-10-03T07:58:40.603Z,1.50
2017-10-03T08:01:08.440Z,2.40
2017-10-03T08:03:36.099Z,1.33
2017-10-03T08:06:03.755Z,1.57
2017-10-03T08:08:31.483Z,0.90
2017-10-03T08:10:59.230Z,1.20
2017-10-03T08:13:26.882Z,1.20
2017-10-03T08:15:54.580Z,1.13
2017-10-03T08:18:22.247Z,0.50
2017-10-03T08:20:49.904Z,0.50
2017-10-03T08:23:17.757Z,0.40
2017-10-03T08:25:45.403Z,0.63
2017-10-03T08:28:13.063Z,0.50
2017-10-03T08:30:40.801Z,0.60
2017-10-03T08:33:08.451Z,0.60
2017-10-03T08:35:36.193Z,0.60
2017-10-03T08:38:03.908Z,0.57
2017-10-03T08:40:31.584Z,0.40
2017-10-03T08:42:59.231Z,0.60
2017-10-03T08:45:26.932Z,0.70
2017-10-03T08:47:54.636Z,0.57
2017-10-03T08:50:22.339Z,0.90
2017-10-03T08:52:50.117Z,0.60
2017-10-03T08:55:17.867Z,0.50
2017-10-03T08:57:45.521Z,0.40
2017-10-03T09:00:13.237Z,0.50
2017-10-03T09:02:40.892Z,0.40
2017-10-03T09:05:08.551Z,0.43
2017-10-03T09:07:36.382Z,0.90
2017-10-03T09:10:04.144Z,1.80
2017-10-03T09:12:31.788Z,0.90
2017-10-03T09:14:59.555Z,0.80
2017-10-03T09:17:27.203Z,0.87
2017-10-03T09:19:54.839Z,0.73
2017-10-03T09:22:22.535Z,0.70
2017-10-03T09:24:50.179Z,0.57
2017-10-03T09:27:17.831Z,0.60
2017-10-03T09:29:45.543Z,0.57
2017-10-03T09:32:13.666Z,0.60
2017-10-03T09:34:41.328Z,0.70
2017-10-03T09:37:09.164Z,0.70
2017-10-03T09:39:36.907Z,0.70
2017-10-03T09:42:04.579Z,0.80
2017-10-03T09:44:32.504Z,3.80
2017-10-03T09:47:00.251Z,0.93
2017-10-03T09:49:27.998Z,1.00
2017-10-03T09:51:55.952Z,0.90
2017-10-03T09:54:23.652Z,1.10
2017-10-03T09:56:51.347Z,1.07
2017-10-03T09:59:19.297Z,3.17
2017-10-03T10:01:47.015Z,2.60
2017-10-03T10:04:15.187Z,2.10
2017-10-03T10:06:42.884Z,3.07
2017-10-03T10:09:10.967Z,7.23
2017-10-03T10:11:38.623Z,10.93
2017-10-03T10:14:06.343Z,12.07
2017-10-03T10:16:34.003Z,6.30
2017-10-03T10:19:01.683Z,6.77
2017-10-03T10:21:29.592Z,8.27
2017-10-03T10:23:57.303Z,4.80
2017-10-03T10:26:25.404Z,6.63
2017-10-03T10:28:53.127Z,2.00
2017-10-03T10:31:20.775Z,2.60
2017-10-03T10:33:49.043Z,17.07
2017-10-03T10:36:17.664Z,5.03
2017-10-03T10:38:45.314Z,1.40
2017-10-03T10:41:13.049Z,0.90
2017-10-03T10:43:40.752Z,0.70
2017-10-03T10:46:08.411Z,0.67
2017-10-03T10:48:36.177Z,0.77
2017-10-03T10:51:03.936Z,0.80
2017-10-03T10:53:31.683Z,0.90
2017-10-03T10:55:59.323Z,0.70
2017-10-03T10:58:27.047Z,0.93
2017-10-03T11:00:54.691Z,0.97
2017-10-03T11:03:22.347Z,0.93
2017-10-03T11:05:50.063Z,0.90
2017-10-03T11:08:17.711Z,0.90
2017-10-03T11:10:45.609Z,0.90
2017-10-03T11:13:13.404Z,0.90
2017-10-03T11:15:41.103Z,0.93
2017-10-03T11:18:08.751Z,1.23
2017-10-03T11:20:36.475Z,1.07
2017-10-03T11:23:16.019Z,0.70
2017-10-03T11:25:43.780Z,1.40
2017-10-03T11:28:11.843Z,4.10
2017-10-03T11:30:39.906Z,1.40
2017-10-03T11:33:08.094Z,1.20
2017-10-03T11:35:35.752Z,1.63
2017-10-03T11:38:03.400Z,1.17
2017-10-03T11:40:31.190Z,1.20
2017-10-03T11:42:58.839Z,1.00
2017-10-03T11:45:26.891Z,1.40
2017-10-03T11:47:54.711Z,1.57
2017-10-03T11:50:22.363Z,1.30
2017-10-03T11:52:50.020Z,5.80
2017-10-03T11:55:17.720Z,2.40
2017-10-03T11:57:45.366Z,1.80
2017-10-03T12:00:13.150Z,1.30
2017-10-03T12:02:40.898Z,1.27
2017-10-03T12:05:08.547Z,1.97
2017-10-03T12:07:36.202Z,1.40
2017-10-03T12:10:03.984Z,1.20
2017-10-03T12:12:31.636Z,2.60
2017-10-03T12:14:59.335Z,1.90
2017-10-03T12:17:27.042Z,1.30
2017-10-03T12:19:54.721Z,2.20
2017-10-03T12:22:22.382Z,1.80
2017-10-03T12:24:50.119Z,1.73
2017-10-03T12:27:17.860Z,1.27
2017-10-03T12:29:45.508Z,1.40
2017-10-03T12:32:13.236Z,2.70
2017-10-03T12:34:40.879Z,1.77
2017-10-03T12:37:08.541Z,1.03
2017-10-03T12:39:36.387Z,1.63
2017-10-03T12:42:04.046Z,1.40
2017-10-03T12:44:31.703Z,14.43
2017-10-03T12:46:59.799Z,1.67
2017-10-03T12:49:27.447Z,1.10
2017-10-03T12:51:55.104Z,1.07
2017-10-03T12:54:22.803Z,0.97
2017-10-03T12:56:50.851Z,1.30
2017-10-03T12:59:18.899Z,1.37
2017-10-03T13:01:46.630Z,1.00
2017-10-03T13:04:14.274Z,0.90
2017-10-03T13:06:41.928Z,0.80
2017-10-03T13:09:09.749Z,0.70
2017-10-03T13:11:37.516Z,0.83
2017-10-03T13:14:05.263Z,0.93
2017-10-03T13:16:33.113Z,0.70
2017-10-03T13:19:00.763Z,0.70
2017-10-03T13:21:28.505Z,0.90
2017-10-03T13:23:56.214Z,0.60
2017-10-03T13:26:23.867Z,0.63
2017-10-03T13:28:51.521Z,0.80
2017-10-03T13:31:19.231Z,0.70
2017-10-03T13:33:46.887Z,0.60
2017-10-03T13:36:14.532Z,0.67
2017-10-03T13:38:42.248Z,0.80
2017-10-03T13:41:10.296Z,0.90
2017-10-03T13:43:37.947Z,0.70
2017-10-03T13:46:06.130Z,1.03
2017-10-03T13:48:33.779Z,0.90
2017-10-03T13:51:01.428Z,0.80
2017-10-03T13:53:29.221Z,0.67
2017-10-03T13:55:56.865Z,0.80
2017-10-03T13:58:24.616Z,0.73
2017-10-03T14:00:52.402Z,1.00
2017-10-03T14:03:20.110Z,0.80
2017-10-03T14:05:47.858Z,0.70
2017-10-03T14:08:15.568Z,0.93
2017-10-03T14:10:43.220Z,1.10
2017-10-03T14:13:10.863Z,1.00
2017-10-03T14:15:38.743Z,1.03
2017-10-03T14:18:06.490Z,0.70
2017-10-03T14:20:34.238Z,0.90
2017-10-03T14:23:01.939Z,1.00
2017-10-03T14:25:29.586Z,1.20
2017-10-03T14:27:57.236Z,0.90
2017-10-03T14:30:24.962Z,1.00
2017-10-03T14:32:52.607Z,0.80
2017-10-03T14:35:20.651Z,1.47
2017-10-03T14:37:48.859Z,0.80
2017-10-03T14:40:16.502Z,1.20
2017-10-03T14:42:44.170Z,1.13
2017-10-03T14:45:11.955Z,1.00
2017-10-03T14:47:40.002Z,0.83
2017-10-03T14:50:08.129Z,0.80
2017-10-03T14:52:35.959Z,1.00
2017-10-03T14:55:03.694Z,0.80
2017-10-03T14:57:31.350Z,0.60
2017-10-03T14:59:59.306Z,1.20
2017-10-03T15:02:27.376Z,1.17
2017-10-03T15:04:55.035Z,0.97
2017-10-03T15:07:23.182Z,0.90
2017-10-03T15:09:51.133Z,0.70
2017-10-03T15:12:18.880Z,1.23
2017-10-03T15:14:46.591Z,0.87
2017-10-03T15:17:14.579Z,0.80
2017-10-03T15:19:43.966Z,0.90
2017-10-03T15:22:11.815Z,0.70
2017-10-03T15:24:39.561Z,1.00
2017-10-03T15:27:07.411Z,1.53
2017-10-03T15:29:35.107Z,1.10
2017-10-03T15:32:02.804Z,1.30
2017-10-03T15:34:30.454Z,1.00
2017-10-03T15:36:58.152Z,1.30
2017-10-03T15:39:26.014Z,1.20
2017-10-03T15:41:53.683Z,1.10
2017-10-03T15:44:21.408Z,1.43
2017-10-03T15:46:49.051Z,1.10
2017-10-03T15:49:16.728Z,1.70
2017-10-03T15:51:44.738Z,1.40
2017-10-03T15:54:12.407Z,1.80
2017-10-03T15:56:40.055Z,1.60
2017-10-03T15:59:07.769Z,1.20
2017-10-03T16:01:35.418Z,1.30
2017-10-03T16:04:03.076Z,1.60
2017-10-03T16:06:30.782Z,1.43
2017-10-03T16:08:58.911Z,1.40
2017-10-03T16:11:26.657Z,1.30
2017-10-03T16:13:54.351Z,1.70
2017-10-03T16:16:22.002Z,1.63
2017-10-03T16:18:49.649Z,1.80
2017-10-03T16:21:17.406Z,1.90
2017-10-03T16:23:45.047Z,2.00
2017-10-03T16:26:12.735Z,1.33
2017-10-03T16:28:40.435Z,1.60
2017-10-03T16:31:08.091Z,1.60
2017-10-03T16:33:35.771Z,1.53
2017-10-03T16:36:03.475Z,1.40
2017-10-03T16:38:31.127Z,2.97
2017-10-03T16:40:58.779Z,1.60
2017-10-03T16:43:26.478Z,2.00
2017-10-03T16:45:54.532Z,1.50
2017-10-03T16:48:22.575Z,1.73
2017-10-03T16:50:50.311Z,1.70
2017-10-03T16:53:17.964Z,1.77
2017-10-03T16:55:45.606Z,1.80
2017-10-03T16:58:13.300Z,2.00
2017-10-03T17:00:40.943Z,1.40
2017-10-03T17:03:08.628Z,2.13
2017-10-03T17:05:37.017Z,2.27
2017-10-03T17:08:04.746Z,1.90
2017-10-03T17:10:32.493Z,1.83
2017-10-03T17:13:00.241Z,2.10
2017-10-03T17:15:29.870Z,1.63
2017-10-03T17:17:57.988Z,1.97
2017-10-03T17:20:25.695Z,1.70
2017-10-03T17:22:53.384Z,1.93
2017-10-03T17:25:21.130Z,1.90
2017-10-03T17:27:48.830Z,1.63
2017-10-03T17:30:16.963Z,1.80
2017-10-03T17:32:45.008Z,1.90
2017-10-03T17:35:13.118Z,2.23
2017-10-03T17:37:40.775Z,1.73
2017-10-03T17:40:08.422Z,2.60
2017-10-03T17:42:36.259Z,2.63
2017-10-03T17:45:04.028Z,3.17
2017-10-03T17:47:31.776Z,5.97
2017-10-03T17:49:59.471Z,4.10
2017-10-03T17:52:27.150Z,5.87
2017-10-03T17:54:54.790Z,4.40
2017-10-03T17:57:22.675Z,3.80
2017-10-03T17:59:50.328Z,4.43
2017-10-03T18:02:17.983Z,3.60
2017-10-03T18:04:46.086Z,3.90
2017-10-03T18:07:13.748Z,2.93
2017-10-03T18:09:41.502Z,6.47
2017-10-03T18:12:09.210Z,8.03
2017-10-03T18:14:36.897Z,7.90
2017-10-03T18:17:04.593Z,8.40
2017-10-03T18:19:33.284Z,5.77
2017-10-03T18:22:01.019Z,5.40
2017-10-03T18:24:28.688Z,4.30
2017-10-03T18:26:57.448Z,3.93
2017-10-03T18:29:25.096Z,4.30
2017-10-03T18:31:52.782Z,4.83
2017-10-03T18:34:20.514Z,3.67
2017-10-03T18:36:48.262Z,2.70
2017-10-03T18:39:15.993Z,2.70
2017-10-03T18:41:43.705Z,2.40
2017-10-03T18:44:11.343Z,2.30
2017-10-03T18:46:38.987Z,2.53
2017-10-03T18:49:06.778Z,3.17
2017-10-03T18:51:34.539Z,3.17
2017-10-03T18:54:03.428Z,2.30
2017-10-03T18:56:31.930Z,2.53
2017-10-03T18:58:59.588Z,3.30
2017-10-03T19:01:27.325Z,2.90
2017-10-03T19:03:55.021Z,2.90
2017-10-03T19:06:22.765Z,3.40
2017-10-03T19:08:50.415Z,3.30
2017-10-03T19:11:18.227Z,3.10
2017-10-03T19:13:45.876Z,2.90
2017-10-03T19:16:13.595Z,2.80
2017-10-03T19:18:42.119Z,3.10
2017-10-03T19:21:09.863Z,3.50
2017-10-03T19:23:37.519Z,3.13
2017-10-03T19:26:05.233Z,2.97
2017-10-03T19:28:33.924Z,2.97
2017-10-03T19:31:01.660Z,4.70
2017-10-03T19:33:29.807Z,5.97
2017-10-03T19:35:57.468Z,3.67
2017-10-03T19:38:25.108Z,4.70
2017-10-03T19:40:53.002Z,4.33
2017-10-03T19:43:22.151Z,4.25
2017-10-03T19:45:51.304Z,4.40
2017-10-03T19:48:19.033Z,3.57
2017-10-03T19:50:46.929Z,5.10
2017-10-03T19:53:14.595Z,4.30
2017-10-03T19:55:43.595Z,3.60
2017-10-03T19:58:11.239Z,4.03
2017-10-03T20:00:38.940Z,3.80
2017-10-03T20:03:06.676Z,3.40
2017-10-03T20:05:34.418Z,3.60
2017-10-03T20:08:02.078Z,4.67
2017-10-03T20:10:29.777Z,4.33
2017-10-03T20:12:57.424Z,4.07
2017-10-03T20:15:25.091Z,4.20
2017-10-03T20:17:53.377Z,5.75
2017-10-03T20:20:21.125Z,4.50
2017-10-03T20:22:48.779Z,4.82
2017-10-03T20:25:16.511Z,4.72
2017-10-03T20:27:44.163Z,5.62
2017-10-03T20:30:11.908Z,4.12
2017-10-03T20:32:39.607Z,4.20
2017-10-03T20:35:07.255Z,4.85
2017-10-03T20:37:34.904Z,4.60
2017-10-03T20:40:02.693Z,4.00
2017-10-03T20:42:30.367Z,4.10
2017-10-03T20:44:58.031Z,4.43
2017-10-03T20:47:25.728Z,3.53
2017-10-03T20:49:53.481Z,4.55
2017-10-03T20:52:21.128Z,6.22
2017-10-03T20:54:48.828Z,5.80
2017-10-03T20:57:16.557Z,6.20
2017-10-03T20:59:44.247Z,6.35
2017-10-03T21:02:11.979Z,7.15
2017-10-03T21:04:39.655Z,4.72
2017-10-03T21:07:07.312Z,4.00
2017-10-03T21:09:35.191Z,3.83
2017-10-03T21:12:02.835Z,4.00
2017-10-03T21:14:30.494Z,4.35
2017-10-03T21:16:58.290Z,4.60
2017-10-03T21:19:25.943Z,4.97
2017-10-03T21:21:53.685Z,4.45
2017-10-03T21:24:21.518Z,4.00
2017-10-03T21:26:49.177Z,4.43
2017-10-03T21:29:16.832Z,3.87
2017-10-03T21:31:44.672Z,4.68
2017-10-03T21:34:12.347Z,4.70
2017-10-03T21:36:40.387Z,4.40
2017-10-03T21:39:08.110Z,4.20
2017-10-03T21:41:47.743Z,3.85
2017-10-03T21:44:15.508Z,4.18
2017-10-03T21:46:43.648Z,4.18
2017-10-03T21:49:11.396Z,2.87
2017-10-03T21:51:39.107Z,4.03
2017-10-03T21:54:06.759Z,4.10
2017-10-03T21:56:34.410Z,4.57
2017-10-03T21:59:02.177Z,3.60
2017-10-03T22:01:29.925Z,3.40
2017-10-03T22:03:57.567Z,3.55
2017-10-03T22:06:25.267Z,3.70
2017-10-03T22:08:52.914Z,3.25
2017-10-03T22:11:20.568Z,3.83
2017-10-03T22:13:48.561Z,2.92
2017-10-03T22:16:16.316Z,3.60
2017-10-03T22:18:44.057Z,3.55
2017-10-03T22:21:11.803Z,3.20
2017-10-03T22:23:39.454Z,3.55
2017-10-03T22:26:07.196Z,3.80
2017-10-03T22:28:34.902Z,4.50
2017-10-03T22:31:02.559Z,2.58
2017-10-03T22:33:30.231Z,3.37
2017-10-03T22:35:57.938Z,3.22
2017-10-03T22:38:25.587Z,2.65
2017-10-03T22:40:53.230Z,2.90
2017-10-03T22:43:21.020Z,3.05
2017-10-03T22:45:48.767Z,3.72
2017-10-03T22:48:16.514Z,3.58
2017-10-03T22:50:44.263Z,2.87
2017-10-03T22:53:11.907Z,3.42
2017-10-03T22:55:39.653Z,3.72
2017-10-03T22:58:07.351Z,2.80
2017-10-03T23:00:34.998Z,3.00
2017-10-03T23:03:02.689Z,3.10
2017-10-03T23:05:30.391Z,2.85
2017-10-03T23:07:58.082Z,2.45
2017-10-03T23:10:25.735Z,3.05
2017-10-03T23:12:53.681Z,2.80
2017-10-03T23:15:21.431Z,2.83
2017-10-03T23:17:49.176Z,2.92
2017-10-03T23:20:16.966Z,2.55
2017-10-03T23:22:44.676Z,2.97
2017-10-03T23:25:12.416Z,3.42
2017-10-03T23:27:40.165Z,3.50
2017-10-03T23:30:07.828Z,2.70
2017-10-03T23:32:35.867Z,2.10
2017-10-03T23:35:03.584Z,3.12
2017-10-03T23:37:31.242Z,4.07
2017-10-03T23:39:59.005Z,2.70
2017-10-03T23:42:27.160Z,3.35
2017-10-03T23:44:54.909Z,3.00
2017-10-03T23:47:22.559Z,2.95
2017-10-03T23:49:50.259Z,2.42
2017-10-03T23:52:17.900Z,2.70
2017-10-03T23:54:45.555Z,3.20
2017-10-03T23:57:13.248Z,4.65
2017-10-03T23:59:40.983Z,3.25
